International Virtual Aviation Organisation

Russian Federation and Kazakhstan MCD

 

Карточка аэропорта UAII

Внимание!
Информация на этой странице в стадии наполнения.
Если вы не увидели какой-то информации, или заметили неточность - пожалуйста сообщите нам!
Спасибо!
Команда RU-STAFF
Название аэропортаШымкент
Название аэропорта (англ.)Shymkent
Превышение1389 ft. (423.4 m.)
Координаты42°21.348', 69°28.734'
Высота перехода5000
Эшелон переходаFL70
Коды ответчика3430-3437, 3530-3537
Зона ОрВДШымкент РПИ (UAII)
Данные METARUAII 300100Z 11002MPS 7000 NSC M09/M11 Q1034 R10/0///70 NOSIG RMK QFE740/0986
Проноз погоды (TAF)UAII 292300Z 3000/3024 08003G08MPS 3100 BR SCT040 BKN100 TX02/3009Z TNM07/3002Z TEMPO 3000/3004 15004MPS 0300 FZFG VV002 BECMG 3004/3006 03006G11MPS 6000 NSW SCT050CB TEMPO 3012/3018 03005MPS 2000 FU BR
NOTAMshow/hide NOTAM
AWOS   TABLE

Информация о ВПП

ВПП Длина ВПП (м.) Покрытие Курс ВПП Частота ILS
103300Железобетон106111.7
283300Железобетон286110.3

Диспетчерские позиции




Спутниковое изображение